createdAt,value
2023-05-14T00:04:53.715Z,101166.19
2023-05-14T00:09:59.861Z,101176.63
2023-05-14T00:15:06.119Z,101165.28
2023-05-14T00:20:12.943Z,101165.75
2023-05-14T00:25:18.479Z,101160.59
2023-05-14T00:30:24.102Z,101161.31
2023-05-14T00:35:29.902Z,101164.00
2023-05-14T00:40:35.504Z,101172.00
2023-05-14T00:45:41.048Z,101168.38
2023-05-14T00:50:46.717Z,101170.53
2023-05-14T00:55:53.184Z,101169.53
2023-05-14T01:00:58.749Z,101167.22
2023-05-14T01:06:14.266Z,101162.19
2023-05-14T01:12:11.318Z,101169.38
2023-05-14T01:17:23.559Z,101163.56
2023-05-14T01:22:29.169Z,101159.59
2023-05-14T01:27:38.346Z,101160.03
2023-05-14T01:32:51.451Z,101155.66
2023-05-14T01:38:00.368Z,101154.94
2023-05-14T01:43:06.834Z,101158.28
2023-05-14T01:48:14.626Z,101149.81
2023-05-14T01:53:20.178Z,101154.84
2023-05-14T01:58:25.831Z,101146.50
2023-05-14T02:03:31.784Z,101139.47
2023-05-14T02:08:37.308Z,101132.56
2023-05-14T02:13:42.873Z,101139.22
2023-05-14T02:18:48.525Z,101146.03
2023-05-14T02:23:53.842Z,101148.59
2023-05-14T02:28:59.507Z,101138.66
2023-05-14T02:34:06.988Z,101123.63
2023-05-14T02:39:12.374Z,101131.97
2023-05-14T02:44:17.620Z,101128.56
2023-05-14T02:49:23.177Z,101122.88
2023-05-14T02:54:28.726Z,101117.56
2023-05-14T02:59:34.310Z,101121.78
2023-05-14T03:04:40.196Z,101124.06
2023-05-14T03:09:45.879Z,101107.69
2023-05-14T03:14:51.599Z,101120.63
2023-05-14T03:19:57.393Z,101114.81
2023-05-14T03:25:03.058Z,101127.88
2023-05-14T03:30:10.321Z,101123.38
2023-05-14T03:35:16.146Z,101126.00
2023-05-14T03:40:21.966Z,101130.09
2023-05-14T03:45:30.855Z,101132.19
2023-05-14T03:50:37.893Z,101122.94
2023-05-14T03:55:44.788Z,101120.00
2023-05-14T04:00:50.714Z,101116.56
2023-05-14T04:05:56.404Z,101115.00
2023-05-14T04:11:01.802Z,101082.13
2023-05-14T04:16:07.595Z,101106.00
2023-05-14T04:21:13.948Z,101096.03
2023-05-14T04:26:19.765Z,101118.19
2023-05-14T04:31:25.467Z,101108.25
2023-05-14T04:36:31.863Z,101095.81
2023-05-14T04:41:37.473Z,101099.91
2023-05-14T04:46:42.990Z,101104.63
2023-05-14T04:51:48.868Z,101096.47
2023-05-14T04:56:56.583Z,101093.16
2023-05-14T05:02:02.032Z,101081.88
2023-05-14T05:07:07.611Z,101085.91
2023-05-14T05:12:13.431Z,101094.94
2023-05-14T05:17:18.609Z,101093.25
2023-05-14T05:22:25.046Z,101096.91
2023-05-14T05:27:30.463Z,101084.31
2023-05-14T05:32:35.880Z,101090.47
2023-05-14T05:37:43.268Z,101089.22
2023-05-14T05:42:48.885Z,101083.91
2023-05-14T05:47:54.117Z,101091.84
2023-05-14T05:53:02.755Z,101077.59
2023-05-14T05:58:08.336Z,101070.91
2023-05-14T06:03:14.492Z,101066.84
2023-05-14T06:08:20.280Z,101065.03
2023-05-14T06:13:25.703Z,101067.38
2023-05-14T06:18:31.388Z,101070.47
2023-05-14T06:23:36.938Z,101064.22
2023-05-14T06:28:42.505Z,101057.16
2023-05-14T06:33:48.822Z,101062.59
2023-05-14T06:38:54.424Z,101044.00
2023-05-14T06:43:59.900Z,101044.81
2023-05-14T06:49:05.510Z,101051.16
2023-05-14T06:54:11.066Z,101050.88
2023-05-14T06:59:16.710Z,101055.97
2023-05-14T07:04:22.159Z,101048.13
2023-05-14T07:09:28.142Z,101053.81
2023-05-14T07:14:33.656Z,101042.94
2023-05-14T07:19:39.371Z,101044.22
2023-05-14T07:24:44.955Z,101038.88
2023-05-14T07:29:51.452Z,101047.59
2023-05-14T07:34:57.438Z,101046.72
2023-05-14T07:40:02.854Z,101049.19
2023-05-14T07:45:10.564Z,101042.16
2023-05-14T07:50:17.080Z,101036.19
2023-05-14T07:55:22.805Z,101009.06
2023-05-14T08:00:28.413Z,101038.97
2023-05-14T08:05:34.113Z,101033.50
2023-05-14T08:10:39.849Z,101013.69
2023-05-14T08:15:45.357Z,101022.53
2023-05-14T08:20:51.778Z,101028.22
2023-05-14T08:25:57.631Z,101006.84
2023-05-14T08:31:03.238Z,101011.59
2023-05-14T08:36:09.189Z,100998.19
2023-05-14T08:41:16.933Z,100992.28
2023-05-14T08:46:25.739Z,100999.59
2023-05-14T08:51:32.159Z,100991.56
2023-05-14T08:56:39.684Z,100974.63
2023-05-14T09:01:49.140Z,100974.31
2023-05-14T09:06:56.195Z,100957.78
2023-05-14T09:12:02.332Z,100972.31
2023-05-14T09:17:09.152Z,100958.16
2023-05-14T09:22:16.866Z,100944.94
2023-05-14T09:27:23.217Z,100945.63
2023-05-14T09:32:39.536Z,100959.88
2023-05-14T09:37:51.540Z,100947.59
2023-05-14T09:42:57.242Z,100943.22
2023-05-14T09:48:04.053Z,100950.56
2023-05-14T09:53:10.448Z,100938.63
2023-05-14T09:58:16.286Z,100937.06
2023-05-14T10:03:23.257Z,100940.63
2023-05-14T10:08:34.344Z,100938.38
2023-05-14T10:14:09.851Z,100930.13
2023-05-14T10:19:18.320Z,100922.59
2023-05-14T10:24:25.497Z,100910.97
2023-05-14T10:29:36.183Z,100901.94
2023-05-14T10:34:48.931Z,100899.38
2023-05-14T10:40:01.333Z,100876.38
2023-05-14T10:45:11.841Z,100906.66
2023-05-14T10:50:19.545Z,100890.59
2023-05-14T10:55:26.229Z,100903.09
2023-05-14T11:00:34.660Z,100902.53
2023-05-14T11:05:41.739Z,100916.25
2023-05-14T11:10:47.695Z,100920.66
2023-05-14T11:15:53.992Z,100912.66
2023-05-14T11:21:03.322Z,100918.56
2023-05-14T11:26:09.064Z,100907.25
2023-05-14T11:31:15.273Z,100906.63
2023-05-14T11:36:21.157Z,100914.56
2023-05-14T11:41:28.598Z,100908.63
2023-05-14T11:46:34.430Z,100901.13
2023-05-14T11:51:40.095Z,100891.88
2023-05-14T11:56:52.089Z,100901.44
2023-05-14T12:01:58.143Z,100903.13
2023-05-14T12:07:11.425Z,100890.13
2023-05-14T12:12:19.987Z,100906.84
2023-05-14T12:17:25.819Z,100914.38
2023-05-14T12:22:31.601Z,100917.78
2023-05-14T12:27:38.584Z,100933.63
2023-05-14T12:32:43.954Z,100925.72
2023-05-14T12:37:49.403Z,100942.97
2023-05-14T12:42:56.718Z,100940.91
2023-05-14T12:48:02.521Z,100937.88
2023-05-14T12:53:07.986Z,100939.00
2023-05-14T12:58:13.437Z,100935.81
2023-05-14T13:03:18.692Z,100923.72
2023-05-14T13:08:27.521Z,100927.72
2023-05-14T13:13:32.956Z,100931.25
2023-05-14T13:18:38.469Z,100940.09
2023-05-14T13:23:44.160Z,100940.50
2023-05-14T13:28:49.810Z,100940.50
2023-05-14T13:33:55.368Z,100941.31
2023-05-14T13:39:00.651Z,100934.59
2023-05-14T13:44:06.394Z,100946.91
2023-05-14T13:49:12.419Z,100938.88
2023-05-14T13:54:17.916Z,100934.03
2023-05-14T13:59:24.531Z,100945.06
2023-05-14T14:04:29.736Z,100925.00
2023-05-14T14:09:37.316Z,100919.16
2023-05-14T14:14:42.834Z,100935.56
2023-05-14T14:19:48.370Z,100937.44
2023-05-14T14:24:55.284Z,100934.56
2023-05-14T14:30:01.029Z,100917.13
2023-05-14T14:35:13.906Z,100945.34
2023-05-14T14:40:19.569Z,100932.50
2023-05-14T14:45:25.616Z,100916.19
2023-05-14T14:50:31.954Z,100945.94
2023-05-14T14:55:38.103Z,100941.94
2023-05-14T15:00:44.455Z,100961.75
2023-05-14T15:05:50.289Z,100965.00
2023-05-14T15:10:57.331Z,100963.09
2023-05-14T15:16:02.973Z,100956.38
2023-05-14T15:21:08.623Z,100946.97
2023-05-14T15:26:14.422Z,100961.41
2023-05-14T15:31:20.192Z,100957.34
2023-05-14T15:36:29.133Z,100946.53
2023-05-14T15:41:35.036Z,100965.25
2023-05-14T15:46:40.528Z,100955.75
2023-05-14T15:51:46.104Z,100968.56
2023-05-14T15:56:51.658Z,100962.31
2023-05-14T16:01:57.317Z,100969.97
2023-05-14T16:07:27.632Z,100976.31
2023-05-14T16:12:33.245Z,100963.66
2023-05-14T16:17:39.128Z,100973.53
2023-05-14T16:22:45.337Z,100972.41
2023-05-14T16:27:50.979Z,100983.09
2023-05-14T16:32:56.420Z,100982.22
2023-05-14T16:38:02.355Z,100989.25
2023-05-14T16:43:08.455Z,100997.44
2023-05-14T16:48:13.999Z,101003.00
2023-05-14T16:53:19.643Z,100982.06
2023-05-14T16:58:25.137Z,101018.00
2023-05-14T17:03:31.147Z,101090.75
2023-05-14T17:08:36.680Z,101081.44
2023-05-14T17:13:42.046Z,101101.38
2023-05-14T17:18:47.486Z,101094.94
2023-05-14T17:23:52.994Z,101125.91
2023-05-14T17:28:58.525Z,101130.22
2023-05-14T17:34:04.123Z,101146.47
2023-05-14T17:39:09.834Z,101158.81
2023-05-14T17:44:15.517Z,101154.16
2023-05-14T17:49:20.993Z,101161.09
2023-05-14T17:54:26.523Z,101166.50
2023-05-14T17:59:32.091Z,101174.56
2023-05-14T18:04:37.726Z,101158.31
2023-05-14T18:09:43.212Z,101152.41
2023-05-14T18:14:48.617Z,101099.88
2023-05-14T18:19:54.197Z,101144.69
2023-05-14T18:24:59.946Z,101143.59
2023-05-14T18:30:06.034Z,101143.09
2023-05-14T18:35:12.788Z,101139.34
2023-05-14T18:40:19.076Z,101146.56
2023-05-14T18:45:25.582Z,101153.22
2023-05-14T18:50:31.374Z,101140.25
2023-05-14T18:55:37.645Z,101152.56
2023-05-14T19:00:43.000Z,101157.75
2023-05-14T19:05:48.814Z,101156.63
2023-05-14T19:10:54.482Z,101142.78
2023-05-14T19:15:59.940Z,101159.88
2023-05-14T19:21:05.543Z,101150.09
2023-05-14T19:26:11.515Z,101150.63
2023-05-14T19:31:17.435Z,101136.69
2023-05-14T19:36:22.940Z,101143.66
2023-05-14T19:41:28.560Z,101153.25
2023-05-14T19:46:34.091Z,101148.97
2023-05-14T19:51:40.045Z,101111.03
2023-05-14T19:56:45.671Z,101131.81
2023-05-14T20:01:51.079Z,101142.00
2023-05-14T20:06:57.462Z,101148.03
2023-05-14T20:12:02.779Z,101133.75
2023-05-14T20:17:08.493Z,101142.09
2023-05-14T20:22:14.228Z,101146.03
2023-05-14T20:27:19.272Z,101137.91
2023-05-14T20:32:25.961Z,101133.84
2023-05-14T20:37:37.171Z,101146.88
2023-05-14T20:42:42.536Z,101128.66
2023-05-14T20:47:48.122Z,101132.41
2023-05-14T20:52:54.191Z,101142.59
2023-05-14T20:57:59.646Z,101140.38
2023-05-14T21:03:05.460Z,101144.00
2023-05-14T21:08:11.674Z,101145.44
2023-05-14T21:13:17.050Z,101109.19
2023-05-14T21:18:22.587Z,101174.31
2023-05-14T21:23:27.652Z,101149.31
2023-05-14T21:28:33.210Z,101152.91
2023-05-14T21:33:38.697Z,101147.91
2023-05-14T21:38:44.361Z,101149.50
2023-05-14T21:43:49.864Z,101146.41
2023-05-14T21:48:56.312Z,101153.50
2023-05-14T21:54:01.810Z,101122.66
2023-05-14T21:59:07.217Z,101153.78
2023-05-14T22:04:12.846Z,101147.47
2023-05-14T22:09:18.394Z,101143.78
2023-05-14T22:14:23.971Z,101142.38
2023-05-14T22:19:29.797Z,101146.88
2023-05-14T22:24:35.408Z,101141.72
2023-05-14T22:29:40.849Z,101134.59
2023-05-14T22:34:46.325Z,101134.59
2023-05-14T22:39:52.057Z,101139.63
2023-05-14T22:44:57.918Z,101138.31
2023-05-14T22:50:03.606Z,101134.53
2023-05-14T22:55:09.995Z,101120.25
2023-05-14T23:00:16.229Z,101137.00
2023-05-14T23:05:21.931Z,101132.16
2023-05-14T23:10:27.798Z,101127.31
2023-05-14T23:15:34.188Z,101129.59
2023-05-14T23:20:39.614Z,101111.59
2023-05-14T23:25:45.096Z,101117.53
2023-05-14T23:30:50.704Z,101121.69
2023-05-14T23:35:56.166Z,101138.09
2023-05-14T23:41:01.570Z,101133.31
2023-05-14T23:46:07.258Z,101140.22
2023-05-14T23:51:12.934Z,101147.53
2023-05-14T23:56:18.654Z,101150.50
